Time;durP1;ratioP1;P1;durP2;ratioP2;P2;SDS_P1;SDS_P2;PMS_P1;PMS_P2;Temp;Humidity;BMP_temperature;BMP_pressure;BME280_temperature;BME280_humidity;BME280_pressure;Samples;Min_cycle;Max_cycle;Signal;HPM_P1;HPM_P2
2023/04/12 00:01:00;;;;;;;11.93;2.40;;;5.90;70.00;;;;;;5051209;28;20054;-75
2023/04/12 00:03:26;;;;;;;12.27;2.60;;;5.90;70.00;;;;;;5045926;28;20037;-75
2023/04/12 00:05:54;;;;;;;15.03;3.33;;;5.90;69.90;;;;;;5051872;28;20135;-75
2023/04/12 00:08:25;;;;;;;10.03;2.60;;;5.90;70.10;;;;;;5053983;28;20056;-76
2023/04/12 00:10:51;;;;;;;15.90;2.67;;;5.90;70.00;;;;;;5069711;28;20048;-76
2023/04/12 00:13:17;;;;;;;12.00;2.83;;;5.90;70.10;;;;;;5034925;28;20131;-75
2023/04/12 00:15:43;;;;;;;9.17;2.60;;;5.90;70.10;;;;;;5051532;28;20056;-75
2023/04/12 00:18:09;;;;;;;13.93;2.87;;;5.90;70.20;;;;;;5046857;28;20490;-75
2023/04/12 00:20:35;;;;;;;11.70;2.93;;;5.90;70.20;;;;;;5069092;28;20109;-75
2023/04/12 00:23:01;;;;;;;13.80;2.57;;;5.90;70.30;;;;;;5067246;28;20589;-75
2023/04/12 00:25:26;;;;;;;11.60;3.17;;;5.90;70.40;;;;;;5069567;28;20052;-75
2023/04/12 00:27:52;;;;;;;12.60;2.90;;;5.90;70.50;;;;;;5053407;28;20114;-75
2023/04/12 00:30:18;;;;;;;11.60;2.80;;;6.00;70.50;;;;;;5051184;28;20052;-75
2023/04/12 00:32:43;;;;;;;9.30;2.90;;;6.00;70.50;;;;;;5068841;28;20051;-75
2023/04/12 00:35:09;;;;;;;10.57;2.80;;;6.00;70.60;;;;;;5068963;28;20131;-75
2023/04/12 00:37:35;;;;;;;15.93;3.13;;;6.00;70.70;;;;;;5036101;28;20106;-76
2023/04/12 00:40:01;;;;;;;12.87;3.63;;;6.00;70.80;;;;;;5051932;28;20508;-76
2023/04/12 00:42:27;;;;;;;8.83;2.73;;;6.00;70.80;;;;;;5051203;28;20473;-75
2023/04/12 00:44:53;;;;;;;12.73;3.13;;;6.10;70.90;;;;;;5035445;28;20040;-75
2023/04/12 00:47:19;;;;;;;16.53;3.23;;;6.10;71.20;;;;;;5051962;28;20131;-75
2023/04/12 00:49:44;;;;;;;17.87;3.30;;;6.10;71.10;;;;;;5051723;28;20060;-76
2023/04/12 01:40:43;;;;;;;11.47;3.20;;;7.10;71.10;;;;;;521231;26;20349;-74
2023/04/12 01:43:11;;;;;;;13.10;3.80;;;7.20;71.00;;;;;;5039175;28;20143;-75
2023/04/12 01:45:37;;;;;;;11.50;3.30;;;7.20;71.00;;;;;;5025070;28;20060;-74
2023/04/12 01:48:11;;;;;;;13.47;3.60;;;7.20;71.50;;;;;;5022145;28;20072;-75
2023/04/12 01:51:13;;;;;;;14.70;3.70;;;7.20;71.50;;;;;;5016202;28;20596;-74
2023/04/12 01:53:56;;;;;;;12.13;3.13;;;7.20;71.90;;;;;;5042250;28;20140;-74
2023/04/12 01:56:25;;;;;;;13.10;3.77;;;7.20;72.00;;;;;;5029045;28;20106;-74
2023/04/12 01:58:54;;;;;;;9.47;3.57;;;7.20;71.80;;;;;;5037344;28;20427;-75
2023/04/12 02:01:21;;;;;;;12.00;3.57;;;7.30;72.10;;;;;;5041432;28;20294;-75
2023/04/12 02:03:49;;;;;;;16.53;3.87;;;7.20;72.20;;;;;;5006284;28;20057;-75
2023/04/12 02:06:19;;;;;;;13.03;3.90;;;7.20;72.40;;;;;;5028308;28;20147;-74
2023/04/12 02:08:46;;;;;;;14.77;3.95;;;7.20;72.60;;;;;;5002260;28;20041;-75
2023/04/12 02:11:13;;;;;;;11.47;3.83;;;7.20;72.70;;;;;;5040725;28;20120;-75
2023/04/12 02:13:39;;;;;;;13.70;3.93;;;7.20;73.00;;;;;;5040442;28;20049;-74
2023/04/12 02:16:06;;;;;;;14.53;3.33;;;7.20;73.00;;;;;;5000687;28;20125;-74
2023/04/12 02:18:34;;;;;;;12.23;3.80;;;7.20;72.90;;;;;;5004802;28;20048;-74
2023/04/12 02:21:00;;;;;;;14.03;4.37;;;7.20;73.40;;;;;;5041990;28;20041;-74
2023/04/12 02:23:26;;;;;;;12.90;3.17;;;7.20;73.40;;;;;;5032742;28;20049;-73
2023/04/12 02:25:52;;;;;;;13.70;3.00;;;7.20;73.70;;;;;;5032978;28;20053;-74
2023/04/12 02:28:17;;;;;;;13.27;3.20;;;7.20;73.80;;;;;;5005431;28;20042;-74
2023/04/12 02:30:44;;;;;;;10.03;2.97;;;7.20;73.90;;;;;;5022039;28;20069;-74
2023/04/12 02:33:12;;;;;;;14.53;2.77;;;7.20;74.20;;;;;;5021496;28;20144;-74
2023/04/12 02:35:37;;;;;;;9.03;2.77;;;7.20;74.20;;;;;;5004382;28;20487;-73
2023/04/12 02:38:07;;;;;;;10.87;3.40;;;7.20;74.70;;;;;;5003342;28;20052;-74
2023/04/12 02:40:34;;;;;;;9.53;2.90;;;7.20;74.50;;;;;;5005761;28;20115;-74
2023/04/12 02:43:00;;;;;;;9.10;2.77;;;7.20;74.70;;;;;;5021145;28;20401;-74
2023/04/12 02:45:26;;;;;;;13.03;2.87;;;7.20;74.80;;;;;;5021853;28;20045;-74
2023/04/12 02:47:51;;;;;;;9.07;2.63;;;7.20;75.10;;;;;;5006594;28;20045;-74
2023/04/12 02:50:17;;;;;;;7.60;2.53;;;7.20;75.20;;;;;;5021490;28;20041;-74
2023/04/12 02:52:43;;;;;;;13.33;2.47;;;7.20;75.10;;;;;;5021197;28;20386;-74
2023/04/12 02:55:09;;;;;;;8.27;2.63;;;7.20;75.30;;;;;;5023039;28;20432;-74
2023/04/12 02:57:34;;;;;;;15.97;3.03;;;7.20;75.20;;;;;;4955367;28;20046;-74
2023/04/12 03:00:00;;;;;;;10.20;2.70;;;7.20;75.00;;;;;;5004651;28;20080;-74
2023/04/12 03:02:26;;;;;;;8.47;2.93;;;7.20;75.10;;;;;;5021069;28;20955;-75
2023/04/12 03:04:53;;;;;;;7.60;2.80;;;7.20;75.20;;;;;;5003168;28;20144;-75
2023/04/12 03:07:20;;;;;;;9.50;2.60;;;7.20;75.40;;;;;;5005843;28;20535;-74
2023/04/12 03:09:48;;;;;;;9.63;2.60;;;7.20;75.10;;;;;;5021530;28;20445;-74
2023/04/12 03:12:15;;;;;;;11.07;3.10;;;7.20;75.10;;;;;;5036428;28;20120;-74
2023/04/12 03:14:41;;;;;;;7.23;2.50;;;7.20;75.20;;;;;;5003614;28;20049;-74
2023/04/12 03:17:07;;;;;;;10.37;3.17;;;7.20;75.30;;;;;;5004148;28;20055;-74
2023/04/12 03:19:34;;;;;;;13.93;2.83;;;7.20;75.20;;;;;;5036930;28;20060;-74
2023/04/12 03:22:00;;;;;;;7.00;2.50;;;7.20;75.20;;;;;;5003293;28;20049;-75
2023/04/12 03:24:26;;;;;;;10.00;2.90;;;7.20;75.20;;;;;;5019848;28;20093;-74
2023/04/12 03:26:53;;;;;;;8.93;2.50;;;7.20;75.30;;;;;;5008947;28;20451;-74
2023/04/12 03:29:19;;;;;;;6.73;2.37;;;7.20;75.40;;;;;;5019790;28;20041;-74
2023/04/12 03:31:45;;;;;;;9.03;2.70;;;7.20;75.20;;;;;;5020738;28;20063;-74
2023/04/12 03:34:11;;;;;;;9.67;2.80;;;7.20;75.30;;;;;;5004398;28;20129;-74
2023/04/12 03:36:37;;;;;;;10.30;3.00;;;7.20;75.40;;;;;;4999807;28;20088;-74
2023/04/12 03:39:03;;;;;;;10.13;2.90;;;7.20;75.50;;;;;;5018872;28;20092;-75
2023/04/12 03:41:29;;;;;;;7.63;2.73;;;7.20;75.70;;;;;;5020105;28;20069;-74
2023/04/12 03:43:54;;;;;;;7.50;2.53;;;7.20;75.80;;;;;;5001335;28;20053;-75
2023/04/12 03:46:20;;;;;;;7.57;2.50;;;7.20;75.90;;;;;;5008260;28;20093;-74
2023/04/12 03:48:46;;;;;;;6.43;2.60;;;7.20;76.00;;;;;;5017098;28;20349;-75
2023/04/12 03:51:12;;;;;;;10.53;2.50;;;7.20;76.10;;;;;;5020415;28;20045;-74
2023/04/12 03:53:38;;;;;;;7.90;2.70;;;7.10;76.10;;;;;;4986159;28;20046;-74
2023/04/12 03:56:05;;;;;;;10.87;2.77;;;7.10;76.10;;;;;;5002668;28;20052;-74
2023/04/12 03:58:32;;;;;;;8.57;2.80;;;7.10;76.10;;;;;;4974449;28;20053;-74
2023/04/12 04:01:08;;;;;;;8.80;2.60;;;7.00;76.30;;;;;;5019502;28;20052;-75
2023/04/12 04:03:34;;;;;;;6.53;2.30;;;7.10;76.20;;;;;;5019766;28;20410;-75
2023/04/12 04:06:01;;;;;;;5.97;2.60;;;7.00;76.40;;;;;;5020717;28;20053;-75
2023/04/12 04:08:27;;;;;;;11.03;2.83;;;7.00;76.60;;;;;;5018965;28;20045;-74
2023/04/12 04:10:55;;;;;;;8.63;2.90;;;7.00;76.50;;;;;;4986532;28;20297;-74
2023/04/12 04:13:21;;;;;;;7.03;2.13;;;7.00;76.60;;;;;;5020959;28;20052;-73
2023/04/12 04:15:50;;;;;;;13.40;4.23;;;7.00;76.80;;;;;;5002501;28;20490;-74
2023/04/12 04:18:16;;;;;;;31.73;11.30;;;7.00;76.80;;;;;;5003383;28;20075;-74
2023/04/12 04:20:42;;;;;;;13.87;3.47;;;7.00;76.60;;;;;;5036278;28;20916;-75
2023/04/12 04:23:09;;;;;;;10.30;3.30;;;7.00;76.90;;;;;;5019386;28;20057;-74
2023/04/12 04:25:38;;;;;;;14.43;5.53;;;7.00;76.90;;;;;;4991861;28;20051;-74
2023/04/12 04:28:07;;;;;;;10.67;3.27;;;6.90;76.80;;;;;;5018922;28;20590;-74
2023/04/12 04:30:37;;;;;;;9.80;3.30;;;7.00;76.80;;;;;;5018390;28;20045;-74
2023/04/12 04:33:04;;;;;;;15.93;3.47;;;6.90;77.00;;;;;;5018475;28;20485;-75
2023/04/12 04:35:30;;;;;;;13.50;3.60;;;6.90;77.20;;;;;;5021600;28;20064;-75
2023/04/12 04:37:56;;;;;;;11.27;3.93;;;6.90;77.20;;;;;;5002647;28;20049;-75
2023/04/12 04:40:23;;;;;;;11.00;4.40;;;6.80;77.50;;;;;;5020289;28;20061;-74
2023/04/12 04:42:53;;;;;;;10.30;4.40;;;6.80;77.60;;;;;;5033719;28;20108;-75
2023/04/12 04:45:25;;;;;;;12.27;4.30;;;6.80;77.60;;;;;;5021013;28;20064;-75
2023/04/12 04:47:54;;;;;;;;;;;6.80;77.80;;;;;;5003943;28;20053;-75
2023/04/12 04:50:25;;;;;;;14.00;4.23;;;6.80;78.30;;;;;;5002067;28;20397;-74
2023/04/12 04:52:51;;;;;;;13.52;4.63;;;6.70;78.00;;;;;;5001665;28;20456;-74
2023/04/12 04:55:17;;;;;;;14.00;4.43;;;6.70;78.20;;;;;;5020038;28;20049;-75
2023/04/12 04:57:43;;;;;;;13.00;4.40;;;6.70;78.20;;;;;;5003253;28;20120;-75
2023/04/12 05:00:10;;;;;;;10.10;4.60;;;6.70;78.20;;;;;;5021575;28;20049;-75
2023/04/12 05:02:42;;;;;;;14.47;4.80;;;6.70;78.20;;;;;;5019068;28;20444;-75
2023/04/12 05:05:08;;;;;;;;;;;6.70;78.30;;;;;;5020231;28;20392;-75
2023/04/12 05:07:35;;;;;;;16.03;5.47;;;6.70;78.80;;;;;;4993545;28;19964;-75
2023/04/12 05:10:01;;;;;;;16.17;5.30;;;6.70;78.70;;;;;;5014426;28;20049;-75
2023/04/12 05:12:27;;;;;;;9.73;4.63;;;6.60;78.70;;;;;;5018326;28;20084;-75
2023/04/12 05:14:52;;;;;;;10.37;4.73;;;6.60;78.70;;;;;;5020042;28;20499;-74
2023/04/12 05:17:18;;;;;;;12.43;5.30;;;6.60;78.90;;;;;;5010350;28;20083;-75
2023/04/12 05:19:44;;;;;;;16.10;5.33;;;6.60;78.90;;;;;;5022245;28;20334;-74
2023/04/12 05:22:09;;;;;;;13.27;4.87;;;6.60;79.00;;;;;;5000085;28;20459;-75
2023/04/12 05:24:36;;;;;;;8.77;4.80;;;6.60;79.00;;;;;;5034460;28;20069;-74
2023/04/12 05:27:02;;;;;;;17.07;5.93;;;6.60;79.00;;;;;;4986160;28;20531;-74
2023/04/12 05:29:28;;;;;;;11.57;5.47;;;6.60;79.10;;;;;;5018962;28;20428;-74
2023/04/12 05:31:54;;;;;;;14.47;5.50;;;6.60;79.30;;;;;;5019521;28;20050;-74
2023/04/12 05:34:19;;;;;;;13.73;5.43;;;6.50;79.20;;;;;;5000096;28;20500;-75
2023/04/12 05:36:45;;;;;;;16.57;5.77;;;6.50;79.50;;;;;;4999819;28;20072;-74
2023/04/12 05:39:11;;;;;;;13.97;5.37;;;6.50;79.60;;;;;;5018830;28;20052;-75
2023/04/12 05:41:36;;;;;;;14.07;5.23;;;6.50;79.70;;;;;;5001735;28;20442;-75
2023/04/12 05:44:02;;;;;;;14.30;5.60;;;6.50;79.70;;;;;;5020098;28;20201;-75
2023/04/12 05:46:28;;;;;;;14.23;6.17;;;6.50;79.60;;;;;;4976791;28;20429;-74
2023/04/12 05:48:55;;;;;;;14.00;6.27;;;6.40;79.80;;;;;;5002604;28;20180;-75
2023/04/12 05:51:20;;;;;;;16.20;5.40;;;6.40;79.90;;;;;;5022757;28;20056;-74
2023/04/12 05:53:46;;;;;;;11.03;6.13;;;6.40;80.00;;;;;;5023354;28;20107;-75
2023/04/12 05:56:12;;;;;;;12.13;6.30;;;6.40;79.90;;;;;;5013085;28;20049;-74
2023/04/12 05:58:37;;;;;;;16.30;6.67;;;6.40;79.80;;;;;;4997515;28;20042;-75
2023/04/12 06:01:04;;;;;;;15.27;6.60;;;6.40;80.00;;;;;;5006018;28;20045;-75
2023/04/12 06:03:31;;;;;;;18.67;7.47;;;6.40;80.00;;;;;;5022199;28;20346;-74
2023/04/12 06:05:56;;;;;;;15.07;7.33;;;6.40;80.10;;;;;;5005301;28;20133;-75
2023/04/12 06:08:22;;;;;;;14.63;7.33;;;6.40;80.20;;;;;;5006379;28;20460;-74
2023/04/12 06:10:48;;;;;;;17.77;6.90;;;6.40;80.10;;;;;;5022702;28;20258;-74
2023/04/12 06:13:14;;;;;;;15.97;6.97;;;6.40;80.30;;;;;;5021126;28;20061;-75
2023/04/12 06:15:39;;;;;;;15.83;7.40;;;6.40;80.30;;;;;;5022696;28;20085;-75
2023/04/12 06:18:08;;;;;;;14.33;7.37;;;6.40;80.30;;;;;;5005345;28;20140;-75
2023/04/12 06:20:37;;;;;;;15.93;6.73;;;6.40;80.30;;;;;;5023402;28;20038;-75
2023/04/12 06:23:03;;;;;;;13.10;7.03;;;6.40;80.50;;;;;;5021378;28;20129;-75
2023/04/12 06:25:29;;;;;;;17.20;7.33;;;6.40;80.50;;;;;;5006490;28;20482;-75
2023/04/12 06:27:54;;;;;;;16.87;6.50;;;6.40;80.50;;;;;;5006242;28;20053;-75
2023/04/12 06:30:20;;;;;;;13.57;6.40;;;6.40;80.50;;;;;;5004048;28;20054;-75
2023/04/12 06:32:46;;;;;;;15.93;5.80;;;6.40;80.50;;;;;;4987808;28;20066;-75
2023/04/12 06:35:11;;;;;;;15.17;6.57;;;6.50;80.50;;;;;;5038692;28;20479;-75
2023/04/12 06:37:37;;;;;;;11.37;5.60;;;6.40;80.70;;;;;;5005847;28;20452;-75
2023/04/12 06:40:03;;;;;;;14.50;6.57;;;6.40;80.70;;;;;;5022956;28;20317;-75
2023/04/12 06:42:29;;;;;;;17.97;6.70;;;6.40;80.70;;;;;;5021086;28;20061;-75
2023/04/12 06:44:55;;;;;;;14.70;6.43;;;6.50;80.70;;;;;;5022500;28;20144;-75
2023/04/12 06:47:21;;;;;;;14.33;5.90;;;6.50;80.70;;;;;;5018586;28;20045;-75
2023/04/12 06:49:50;;;;;;;12.37;5.30;;;6.50;80.80;;;;;;5012212;28;20057;-75
2023/04/12 06:52:16;;;;;;;13.77;6.40;;;6.50;80.70;;;;;;5020360;28;20081;-75
2023/04/12 06:54:42;;;;;;;9.30;6.30;;;6.50;80.80;;;;;;5023003;28;20159;-75
2023/04/12 06:57:12;;;;;;;12.27;6.10;;;6.50;80.70;;;;;;5004885;28;20057;-76
2023/04/12 06:59:37;;;;;;;11.23;5.87;;;6.50;80.80;;;;;;5037908;28;20188;-74
2023/04/12 07:02:03;;;;;;;12.00;6.20;;;6.50;80.60;;;;;;5007018;28;20459;-75
2023/04/12 07:04:29;;;;;;;12.73;6.20;;;6.50;80.80;;;;;;5020256;28;20179;-75
2023/04/12 07:06:55;;;;;;;13.43;6.60;;;6.50;80.70;;;;;;4989104;28;20181;-76
2023/04/12 07:09:20;;;;;;;12.57;6.33;;;6.50;80.80;;;;;;5019764;28;20362;-75
2023/04/12 07:11:47;;;;;;;14.83;6.63;;;6.50;80.80;;;;;;5003331;28;20391;-75
2023/04/12 07:14:13;;;;;;;14.03;7.03;;;6.50;81.00;;;;;;5021559;28;20488;-75
2023/04/12 07:16:38;;;;;;;13.43;6.20;;;6.50;81.00;;;;;;5005763;28;20068;-75
2023/04/12 07:19:04;;;;;;;11.93;6.37;;;6.50;81.10;;;;;;4999867;28;20056;-75
2023/04/12 07:21:30;;;;;;;13.90;6.43;;;6.50;81.20;;;;;;5020922;28;20053;-74
2023/04/12 07:23:56;;;;;;;12.50;6.27;;;6.50;81.20;;;;;;5019316;28;20092;-74
2023/04/12 07:26:22;;;;;;;14.03;6.70;;;6.50;81.20;;;;;;5007865;28;20409;-74
2023/04/12 07:28:48;;;;;;;10.90;6.27;;;6.50;81.10;;;;;;5005507;28;20049;-75
2023/04/12 07:31:13;;;;;;;13.10;6.63;;;6.50;81.20;;;;;;5018318;28;20524;-74
2023/04/12 07:33:39;;;;;;;14.43;7.03;;;6.50;81.20;;;;;;5030398;28;20065;-75
2023/04/12 07:36:06;;;;;;;12.77;6.60;;;6.50;81.20;;;;;;5030054;28;20048;-75
2023/04/12 07:38:32;;;;;;;14.03;7.47;;;6.50;81.20;;;;;;4996860;28;20060;-75
2023/04/12 07:40:57;;;;;;;9.90;6.77;;;6.60;81.20;;;;;;5033080;28;20040;-74
2023/04/12 07:43:23;;;;;;;12.90;6.70;;;6.60;81.30;;;;;;5019910;28;20390;-75
2023/04/12 07:45:49;;;;;;;11.23;6.80;;;6.60;81.20;;;;;;5039309;28;20110;-75
2023/04/12 07:48:15;;;;;;;11.60;7.13;;;6.60;81.30;;;;;;4996820;28;20052;-75
2023/04/12 07:50:41;;;;;;;11.77;6.87;;;6.60;81.20;;;;;;5022553;28;20049;-75
2023/04/12 07:53:20;;;;;;;15.27;7.83;;;6.60;81.20;;;;;;5036642;28;20049;-75
2023/04/12 07:55:46;;;;;;;12.10;8.40;;;6.60;81.40;;;;;;5037297;28;20057;-75
2023/04/12 07:58:11;;;;;;;10.23;7.07;;;6.60;81.40;;;;;;5022030;28;20116;-75
2023/04/12 08:00:37;;;;;;;11.97;7.27;;;6.70;81.50;;;;;;5038381;28;20122;-75
2023/04/12 08:03:03;;;;;;;14.00;8.10;;;6.70;81.40;;;;;;5018767;28;20440;-75
2023/04/12 08:05:29;;;;;;;11.33;7.20;;;6.70;81.40;;;;;;5039295;28;20056;-75
2023/04/12 08:07:55;;;;;;;10.40;7.83;;;6.70;81.40;;;;;;5003255;28;20235;-75
2023/04/12 08:10:20;;;;;;;9.83;7.47;;;6.80;81.20;;;;;;5038783;28;20051;-74
2023/04/12 08:12:46;;;;;;;10.67;8.03;;;6.80;81.30;;;;;;5039214;28;20110;-75
2023/04/12 08:15:12;;;;;;;12.63;8.50;;;6.80;81.40;;;;;;5038893;28;20048;-74
2023/04/12 08:17:38;;;;;;;23.60;13.67;;;6.90;81.30;;;;;;5026974;28;20435;-75
2023/04/12 08:20:04;;;;;;;16.80;10.00;;;6.90;81.40;;;;;;5039746;28;20114;-75
2023/04/12 08:22:30;;;;;;;11.53;7.87;;;6.90;81.30;;;;;;5002223;28;20305;-74
2023/04/12 08:24:56;;;;;;;8.87;7.97;;;7.00;81.30;;;;;;5039067;28;20053;-75
2023/04/12 08:27:21;;;;;;;12.30;8.27;;;7.00;81.00;;;;;;5021291;28;20061;-75
2023/04/12 08:29:47;;;;;;;9.83;7.67;;;7.00;81.20;;;;;;5039113;28;20076;-75
2023/04/12 08:32:13;;;;;;;9.97;7.53;;;7.00;81.10;;;;;;5037618;28;20052;-75
2023/04/12 08:34:39;;;;;;;12.67;8.33;;;7.00;81.20;;;;;;5020861;28;20045;-75
2023/04/12 08:37:04;;;;;;;11.97;8.43;;;7.00;81.20;;;;;;5023426;28;20094;-75
2023/04/12 08:39:34;;;;;;;9.63;8.13;;;7.00;81.20;;;;;;5038381;28;20055;-75
2023/04/12 08:42:00;;;;;;;9.83;8.80;;;7.00;81.30;;;;;;5019286;28;20068;-75
2023/04/12 08:44:37;;;;;;;13.13;8.97;;;7.00;81.20;;;;;;5037582;28;20052;-75
2023/04/12 08:47:03;;;;;;;12.37;9.20;;;7.00;81.40;;;;;;5003832;28;20049;-75
2023/04/12 08:49:33;;;;;;;11.43;9.17;;;7.00;81.20;;;;;;5020203;28;20045;-75
2023/04/12 08:52:01;;;;;;;9.90;8.27;;;7.00;81.30;;;;;;5038248;28;20483;-75
2023/04/12 08:54:27;;;;;;;9.97;8.80;;;7.00;81.30;;;;;;5019165;28;20041;-75
2023/04/12 08:56:59;;;;;;;10.17;9.17;;;7.00;81.40;;;;;;5004494;28;20072;-74
2023/04/12 08:59:26;;;;;;;12.70;10.03;;;7.10;81.40;;;;;;5019248;28;20045;-75
2023/04/12 09:01:54;;;;;;;11.60;9.70;;;7.10;81.20;;;;;;5038004;28;20384;-74
2023/04/12 09:04:20;;;;;;;14.90;10.37;;;7.10;81.40;;;;;;5019730;28;20261;-75
2023/04/12 09:06:46;;;;;;;12.73;10.90;;;7.20;81.60;;;;;;5023258;28;20057;-75
2023/04/12 09:09:11;;;;;;;13.63;11.37;;;7.20;81.40;;;;;;5036489;28;20463;-75
2023/04/12 09:11:37;;;;;;;11.80;10.57;;;7.20;81.50;;;;;;5038278;28;20079;-75
2023/04/12 09:14:03;;;;;;;14.63;11.90;;;7.20;81.40;;;;;;5038155;28;20049;-75
2023/04/12 09:16:40;;;;;;;13.23;11.83;;;7.20;81.50;;;;;;5025902;28;20057;-74
2023/04/12 09:19:06;;;;;;;14.83;12.57;;;7.30;81.50;;;;;;5029350;28;20048;-75
2023/04/12 09:21:35;;;;;;;13.63;11.77;;;7.40;81.40;;;;;;5041902;28;20193;-75
2023/04/12 09:24:12;;;;;;;16.53;12.37;;;7.40;81.40;;;;;;5041476;28;20072;-75
2023/04/12 09:26:39;;;;;;;18.03;13.30;;;7.40;81.50;;;;;;4993106;28;20331;-75
2023/04/12 09:29:04;;;;;;;14.17;12.60;;;7.50;81.60;;;;;;5038871;28;20403;-75
2023/04/12 09:31:30;;;;;;;15.47;13.37;;;7.60;81.50;;;;;;5042299;28;20045;-75
2023/04/12 09:34:08;;;;;;;15.87;14.03;;;7.70;81.60;;;;;;5040593;28;20060;-75
2023/04/12 09:36:40;;;;;;;16.87;13.90;;;7.80;81.50;;;;;;5027351;28;20886;-75
2023/04/12 09:39:07;;;;;;;16.43;13.73;;;7.90;81.60;;;;;;5039937;28;20041;-75
2023/04/12 09:41:33;;;;;;;19.00;14.50;;;8.00;81.60;;;;;;5041452;28;20066;-75
2023/04/12 09:43:59;;;;;;;14.77;12.20;;;8.20;81.90;;;;;;5006210;28;20540;-76
2023/04/12 09:46:25;;;;;;;14.87;12.40;;;8.40;81.30;;;;;;5029129;28;20572;-75
2023/04/12 09:48:53;;;;;;;13.10;11.73;;;8.50;81.20;;;;;;5037379;28;20045;-75
2023/04/12 09:51:30;;;;;;;13.93;12.23;;;8.50;81.10;;;;;;5041787;28;20300;-75
2023/04/12 09:54:04;;;;;;;11.20;10.03;;;8.60;81.20;;;;;;5039960;28;20571;-75
2023/04/12 09:56:32;;;;;;;12.07;10.77;;;8.70;80.90;;;;;;5027849;28;20057;-74
2023/04/12 09:59:03;;;;;;;9.93;8.73;;;8.70;80.50;;;;;;5019610;28;20051;-75
2023/04/12 10:01:39;;;;;;;12.90;10.38;;;8.80;80.50;;;;;;5033898;28;20581;-76
2023/04/12 10:04:08;;;;;;;12.03;9.20;;;9.00;80.70;;;;;;5039169;28;20060;-75
2023/04/12 10:06:34;;;;;;;10.63;8.33;;;9.30;80.70;;;;;;5010072;28;20079;-75
2023/04/12 10:09:03;;;;;;;10.30;6.83;;;9.50;80.00;;;;;;5038460;28;20068;-76
2023/04/12 10:11:29;;;;;;;11.43;7.97;;;9.60;79.30;;;;;;5041512;28;20053;-76
2023/04/12 10:13:58;;;;;;;13.10;7.47;;;9.70;79.40;;;;;;5040291;28;20547;-75
2023/04/12 10:16:25;;;;;;;36.73;20.27;;;9.70;79.10;;;;;;5029321;28;20607;-75
2023/04/12 10:18:53;;;;;;;16.67;7.27;;;9.70;78.70;;;;;;5036664;28;20036;-75
2023/04/12 10:21:20;;;;;;;15.23;7.50;;;9.70;78.90;;;;;;5042678;28;20134;-75
2023/04/12 10:23:46;;;;;;;12.17;6.70;;;9.80;79.30;;;;;;5042322;28;20045;-75
2023/04/12 10:26:15;;;;;;;13.37;6.67;;;9.90;78.80;;;;;;5031886;28;20057;-75
2023/04/12 10:28:46;;;;;;;12.23;5.40;;;10.10;79.10;;;;;;5036447;28;20068;-75
2023/04/12 10:31:31;;;;;;;14.18;6.00;;;10.40;78.30;;;;;;5022109;28;20075;-75
2023/04/12 10:34:01;;;;;;;10.07;5.10;;;10.40;76.80;;;;;;5022461;28;20106;-75
2023/04/12 10:36:52;;;;;;;17.10;4.97;;;10.30;77.50;;;;;;5029195;28;20509;-75
2023/04/12 10:39:18;;;;;;;12.10;4.17;;;10.30;76.70;;;;;;5040458;28;20474;-75
2023/04/12 10:42:18;;;;;;;15.67;4.37;;;10.20;76.50;;;;;;5041918;28;20061;-75
2023/04/12 10:44:44;;;;;;;7.87;3.90;;;10.10;75.70;;;;;;5040861;28;20049;-75
2023/04/12 10:47:10;;;;;;;12.67;5.03;;;10.30;76.70;;;;;;5024315;28;20045;-75
2023/04/12 10:49:38;;;;;;;9.90;4.10;;;10.50;76.90;;;;;;5041571;28;20487;-75
2023/04/12 10:52:03;;;;;;;14.70;4.13;;;10.50;75.40;;;;;;5024034;28;20061;-75
2023/04/12 10:54:34;;;;;;;16.47;4.37;;;10.20;75.00;;;;;;5041261;28;20056;-76
2023/04/12 10:57:01;;;;;;;15.97;4.23;;;10.10;75.70;;;;;;5008191;28;20513;-75
2023/04/12 10:59:54;;;;;;;14.43;4.83;;;10.00;75.90;;;;;;5022940;28;20056;-75
2023/04/12 11:02:20;;;;;;;16.17;4.27;;;9.80;75.80;;;;;;5022633;28;20064;-75
2023/04/12 11:05:07;;;;;;;13.27;4.40;;;9.70;76.00;;;;;;5041232;28;20489;-75
2023/04/12 11:07:45;;;;;;;15.57;4.50;;;9.60;75.70;;;;;;5006915;28;20048;-75
2023/04/12 11:10:20;;;;;;;13.33;4.10;;;9.60;75.90;;;;;;5024100;28;20052;-74
2023/04/12 11:12:54;;;;;;;16.10;3.87;;;9.50;75.80;;;;;;5022561;28;20088;-75
2023/04/12 11:15:19;;;;;;;13.70;3.93;;;9.50;76.10;;;;;;5023555;28;20092;-75
2023/04/12 11:17:54;;;;;;;17.03;4.13;;;9.50;76.00;;;;;;5025306;28;20178;-75
2023/04/12 11:20:20;;;;;;;12.07;3.60;;;9.50;75.40;;;;;;5022549;28;20056;-75
2023/04/12 11:22:46;;;;;;;11.27;3.87;;;9.50;75.80;;;;;;5024077;28;20045;-75
2023/04/12 11:25:16;;;;;;;14.83;3.93;;;9.60;76.00;;;;;;5022622;28;20092;-75
2023/04/12 11:27:49;;;;;;;11.43;4.03;;;9.70;76.10;;;;;;5023961;28;20630;-75
2023/04/12 11:30:15;;;;;;;14.33;3.93;;;9.90;75.80;;;;;;5041256;28;20052;-75
2023/04/12 11:32:44;;;;;;;15.73;3.87;;;10.00;75.70;;;;;;5039860;28;20502;-75
2023/04/12 11:35:10;;;;;;;15.40;3.80;;;10.20;75.00;;;;;;5023043;28;20057;-74
2023/04/12 11:37:36;;;;;;;19.77;4.10;;;10.30;74.90;;;;;;5025179;28;20041;-74
2023/04/12 11:40:04;;;;;;;15.07;4.00;;;10.40;73.20;;;;;;5022865;28;20029;-75
2023/04/12 11:42:31;;;;;;;21.43;4.70;;;10.60;73.30;;;;;;5021185;28;20083;-75
2023/04/12 11:44:57;;;;;;;17.73;3.87;;;10.80;73.40;;;;;;5024136;28;20049;-74
2023/04/12 11:47:24;;;;;;;13.77;4.03;;;10.90;71.00;;;;;;5023958;28;20040;-74
2023/04/12 11:49:57;;;;;;;16.50;3.40;;;10.90;70.60;;;;;;5040741;28;20653;-75
2023/04/12 11:52:31;;;;;;;15.13;3.87;;;10.90;70.20;;;;;;5040678;28;20338;-75
2023/04/12 11:55:09;;;;;;;15.63;3.43;;;10.90;69.30;;;;;;5039797;28;20326;-75
2023/04/12 11:57:37;;;;;;;12.77;3.30;;;10.80;70.10;;;;;;4989917;28;20049;-74
2023/04/12 12:00:05;;;;;;;13.17;3.37;;;10.80;69.60;;;;;;5040076;28;20071;-74
2023/04/12 12:02:32;;;;;;;13.80;2.77;;;10.70;68.50;;;;;;5022066;28;20049;-75
2023/04/12 12:04:58;;;;;;;14.70;3.43;;;10.60;68.60;;;;;;5040073;28;20102;-75
2023/04/12 12:07:24;;;;;;;18.17;3.73;;;10.60;69.80;;;;;;5022594;28;20049;-75
2023/04/12 12:09:50;;;;;;;19.43;3.40;;;10.60;69.90;;;;;;5023196;28;20052;-75
2023/04/12 12:12:17;;;;;;;19.47;3.87;;;10.60;70.10;;;;;;5039275;28;20257;-75
2023/04/12 12:14:46;;;;;;;18.57;4.33;;;10.60;70.00;;;;;;5034844;28;20049;-75
2023/04/12 12:17:14;;;;;;;16.93;4.20;;;10.60;68.90;;;;;;5014862;28;20051;-74
2023/04/12 12:19:41;;;;;;;16.40;3.87;;;10.50;68.90;;;;;;5039591;28;20568;-75
2023/04/12 12:22:18;;;;;;;21.07;4.17;;;10.40;69.10;;;;;;5038419;28;20110;-74
2023/04/12 12:24:53;;;;;;;13.70;3.83;;;10.30;68.40;;;;;;5039421;28;20114;-74
2023/04/12 12:27:23;;;;;;;17.13;4.10;;;10.30;69.60;;;;;;5003591;28;20387;-75
2023/04/12 12:29:52;;;;;;;18.70;3.90;;;10.40;69.00;;;;;;5007945;28;20041;-75
2023/04/12 12:32:19;;;;;;;17.80;4.30;;;10.50;68.40;;;;;;5020431;28;20679;-74
2023/04/12 12:34:55;;;;;;;16.50;4.00;;;10.60;67.50;;;;;;5005264;28;20049;-75
2023/04/12 12:37:25;;;;;;;20.47;4.30;;;10.80;67.60;;;;;;5023918;28;20621;-74
2023/04/12 12:40:14;;;;;;;20.90;4.90;;;11.00;67.90;;;;;;5039367;28;20041;-75
2023/04/12 12:42:59;;;;;;;24.83;4.70;;;11.10;67.80;;;;;;5020625;28;20257;-74
2023/04/12 12:45:27;;;;;;;16.40;4.27;;;11.30;68.00;;;;;;5038662;28;20503;-75
2023/04/12 12:48:03;;;;;;;18.60;4.80;;;11.40;66.80;;;;;;5022199;28;20052;-75
2023/04/12 12:50:33;;;;;;;17.23;4.47;;;11.20;66.10;;;;;;5039353;28;20059;-75
2023/04/12 12:53:00;;;;;;;17.73;4.20;;;11.10;67.40;;;;;;5036991;28;20048;-75
2023/04/12 12:55:28;;;;;;;16.83;4.07;;;11.10;67.70;;;;;;5021600;28;20486;-75
2023/04/12 12:57:55;;;;;;;19.67;4.40;;;11.10;68.00;;;;;;5004668;28;20044;-75
2023/04/12 13:00:26;;;;;;;18.73;3.70;;;11.10;67.80;;;;;;5018882;28;20049;-75
2023/04/12 13:02:52;;;;;;;21.25;3.70;;;11.30;67.70;;;;;;5034774;28;20350;-74
2023/04/12 13:05:20;;;;;;;18.67;3.77;;;11.30;66.80;;;;;;5017245;28;20475;-74
2023/04/12 13:07:46;;;;;;;16.80;3.77;;;11.30;66.10;;;;;;5019732;28;20527;-75
2023/04/12 13:10:12;;;;;;;16.10;3.97;;;11.10;66.00;;;;;;5020611;28;20480;-74
2023/04/12 13:12:43;;;;;;;20.30;4.23;;;11.20;66.10;;;;;;5035436;28;20369;-75
2023/04/12 13:15:10;;;;;;;21.40;3.93;;;11.30;66.90;;;;;;5036929;28;20053;-74
2023/04/12 13:17:36;;;;;;;16.77;3.97;;;11.30;66.10;;;;;;5028102;28;20125;-75
2023/04/12 13:20:02;;;;;;;14.27;3.47;;;11.10;65.70;;;;;;5038882;28;20041;-74
2023/04/12 13:22:28;;;;;;;14.40;3.13;;;11.10;66.00;;;;;;5038900;28;20061;-75
2023/04/12 13:24:54;;;;;;;13.33;3.47;;;10.90;65.90;;;;;;5037938;28;20071;-74
2023/04/12 13:27:20;;;;;;;19.40;4.07;;;10.80;66.30;;;;;;5003466;28;20049;-75
2023/04/12 13:29:46;;;;;;;19.60;4.73;;;10.70;66.60;;;;;;5038517;28;20056;-74
2023/04/12 13:32:13;;;;;;;19.40;4.00;;;10.70;67.10;;;;;;5036351;28;20109;-75
2023/04/12 13:34:38;;;;;;;20.10;3.90;;;10.60;67.00;;;;;;5039783;28;20068;-75
2023/04/12 13:37:04;;;;;;;18.60;3.73;;;10.60;67.30;;;;;;5022817;28;20057;-75